CNG6 weather

Walkerton (County of Bruce General Hospital) Heliport
Walkerton, Ontario, Canada

Public forecast

Using degrees Celsius for public forecast. Weather courtesy of forecast.io.

Closest aviation weather report (METAR) to Walkerton (County of Bruce General Hospital) Heliport

Closest report is Wiarton Airport, 37.5 nm (69.5 km) N. Retrieved 2020/01/28 06:00 UTC (41 minutes ago):

CYVV 280600Z 31004KT 280V350 12SM OVC026 M01/M03 A2988 RMK SC8 SLP131

Closest aviation forecast (TAF) to Walkerton (County of Bruce General Hospital) Heliport

Forecast is more than 6 hours old.

Closest forecast is Wiarton Airport, 37.5 nm (69.5 km) N. Retrieved 2020/01/27 20:00 UTC (11 hours ago):

TAF CYVV 271938Z 2720/2724 34008KT P6SM OVC015 TEMPO 2720/2724 5SM -SN OVC007 PROB30 2720/2724 3SM -FZDZ BR RMK NXT FCST WILL BE ISSUED AT 281145Z